Terminal Aerodrome Forecast
Issued by NWS

Home | Current Version | Previous Version | Text Only | Print | Product List | Glossary On
Versions: 1 2 3 4 5 6 7 8 9 10 11 12 13 14 15 16 17 18 19 20 21 22 23 24
000
FTUS42 KRAH 202331
TAFRWI
TAF
KRWI 202331Z 2100/2124 VRB03KT P6SM SCT008 OVC060
      TEMPO 2102/2104 5SM BR BKN008
     FM210600 00000KT 6SM BR FEW008 BKN050
      TEMPO 2109/2112 1SM BR BKN008
     FM211300 04005KT P6SM BKN050=

USA.gov is the U.S. government's official web portal to all federal, state and local government web resources and services.